Germania, New Jersey
Current Conditions -  °F | °C
As of 10:54 AM on Friday 31 Oct 2014 (Local Time) from KACY Reporting Station
Clear Clear  
Wind Chill: 47°   Ceiling: Unl
Heat Index: 49°   Visibility: 10mi
Dew Point: 40°   Wind: 6mph
Humidity: 71%   Direction: 30°NNE
Pressure: 29.95"   Gusts: NA
Location:  39.5436°N, 74.5919°W
Report Text: KACY 311454Z 03005KT 10SM CLR 09/04 A2995 RMK AO2 SLP144 T00940044 58015
Loading
Personal Weather Stations






























Interactive Weather Map
Tropical Storm Tracking
New forecast layout! Learn more

10-Day Weather Forecast

Advertisements
Track Severe Weather on mobile